createdAt,value
2022-08-19T00:02:20.674Z,1.33
2022-08-19T00:04:53.665Z,3.57
2022-08-19T00:07:23.438Z,1.97
2022-08-19T00:09:52.449Z,3.10
2022-08-19T00:12:21.351Z,1.43
2022-08-19T00:14:52.026Z,3.00
2022-08-19T00:17:20.831Z,2.10
2022-08-19T00:19:49.718Z,2.30
2022-08-19T00:22:22.217Z,2.10
2022-08-19T00:24:58.377Z,1.90
2022-08-19T00:27:33.417Z,2.53
2022-08-19T00:30:04.801Z,1.93
2022-08-19T00:32:34.249Z,2.17
2022-08-19T00:35:03.789Z,1.83
2022-08-19T00:37:39.901Z,2.47
2022-08-19T00:40:12.205Z,1.90
2022-08-19T00:42:41.097Z,1.90
2022-08-19T00:45:17.801Z,1.70
2022-08-19T00:47:55.163Z,3.03
2022-08-19T00:50:24.201Z,2.27
2022-08-19T00:52:54.813Z,1.63
2022-08-19T00:55:26.762Z,1.67
2022-08-19T00:58:05.273Z,1.93
2022-08-19T01:00:37.798Z,2.20
2022-08-19T01:03:08.339Z,1.83
2022-08-19T01:05:38.166Z,1.87
2022-08-19T01:08:09.633Z,2.43
2022-08-19T01:10:43.236Z,2.57
2022-08-19T01:13:12.763Z,1.87
2022-08-19T01:15:47.202Z,2.30
2022-08-19T01:18:19.325Z,2.03
2022-08-19T01:20:48.197Z,1.83
2022-08-19T01:23:19.298Z,2.03
2022-08-19T01:25:56.549Z,1.90
2022-08-19T01:28:39.749Z,2.03
2022-08-19T01:31:26.996Z,1.70
2022-08-19T01:34:00.321Z,1.90
2022-08-19T01:36:35.360Z,3.00
2022-08-19T01:39:11.224Z,2.23
2022-08-19T01:41:39.959Z,2.57
2022-08-19T01:44:18.806Z,2.80
2022-08-19T01:46:50.476Z,2.63
2022-08-19T01:49:21.156Z,1.27
2022-08-19T01:51:50.648Z,2.90
2022-08-19T01:54:27.837Z,2.27
2022-08-19T01:57:03.481Z,1.70
2022-08-19T01:59:33.322Z,1.90
2022-08-19T02:02:09.627Z,1.83
2022-08-19T02:04:39.697Z,1.63
2022-08-19T02:07:12.012Z,2.10
2022-08-19T02:09:42.437Z,2.47
2022-08-19T02:12:11.390Z,2.00
2022-08-19T02:14:40.457Z,1.93
2022-08-19T02:17:09.484Z,2.20
2022-08-19T02:19:39.346Z,2.20
2022-08-19T02:22:10.266Z,2.10
2022-08-19T02:24:39.993Z,2.30
2022-08-19T02:27:10.882Z,1.77
2022-08-19T02:29:39.924Z,2.50
2022-08-19T02:32:09.133Z,2.87
2022-08-19T02:34:37.982Z,1.77
2022-08-19T02:37:06.950Z,2.43
2022-08-19T02:39:34.589Z,2.00
2022-08-19T02:42:03.977Z,2.50
2022-08-19T02:44:34.164Z,2.17
2022-08-19T02:47:04.117Z,2.07
2022-08-19T02:49:34.855Z,2.30
2022-08-19T02:52:04.021Z,1.70
2022-08-19T02:54:32.819Z,2.03
2022-08-19T02:57:03.042Z,2.47
2022-08-19T02:59:34.767Z,1.73
2022-08-19T03:02:03.767Z,2.27
2022-08-19T03:04:32.820Z,2.60
2022-08-19T03:07:10.544Z,2.50
2022-08-19T03:09:40.679Z,1.93
2022-08-19T03:12:12.335Z,1.77
2022-08-19T03:14:42.702Z,2.63
2022-08-19T03:17:12.052Z,2.03
2022-08-19T03:19:41.149Z,2.50
2022-08-19T03:22:10.340Z,1.37
2022-08-19T03:24:40.188Z,1.80
2022-08-19T03:27:09.215Z,2.37
2022-08-19T03:29:43.835Z,2.50
2022-08-19T03:32:31.734Z,1.87
2022-08-19T03:35:03.607Z,2.70
2022-08-19T03:37:32.505Z,3.10
2022-08-19T03:40:01.635Z,1.97
2022-08-19T03:42:38.264Z,2.83
2022-08-19T03:45:18.256Z,2.10
2022-08-19T03:47:49.196Z,2.53
2022-08-19T03:50:20.383Z,2.73
2022-08-19T03:52:53.059Z,2.50
2022-08-19T03:55:22.134Z,2.43
2022-08-19T03:57:55.208Z,2.60
2022-08-19T04:00:30.714Z,2.40
2022-08-19T04:03:04.937Z,2.80
2022-08-19T04:05:34.144Z,2.63
2022-08-19T04:08:10.739Z,2.80
2022-08-19T04:10:43.575Z,3.20
2022-08-19T04:13:12.985Z,3.30
2022-08-19T04:15:42.999Z,3.30
2022-08-19T04:18:13.402Z,2.30
2022-08-19T04:20:44.546Z,4.60
2022-08-19T04:23:19.906Z,2.30
2022-08-19T04:25:51.910Z,2.85
2022-08-19T04:28:24.362Z,3.70
2022-08-19T04:30:56.018Z,3.60
2022-08-19T04:33:29.855Z,3.60
2022-08-19T04:35:59.528Z,2.73
2022-08-19T04:38:28.285Z,3.30
2022-08-19T04:41:14.951Z,2.77
2022-08-19T04:43:46.183Z,2.20
2022-08-19T04:46:20.312Z,3.27
2022-08-19T04:49:13.292Z,3.00
2022-08-19T04:51:44.257Z,3.30
2022-08-19T04:54:13.523Z,4.00
2022-08-19T04:56:43.386Z,2.90
2022-08-19T04:59:13.151Z,2.63
2022-08-19T05:01:46.457Z,4.40
2022-08-19T05:04:23.088Z,3.70
2022-08-19T05:07:00.019Z,3.93
2022-08-19T05:09:55.394Z,4.00
2022-08-19T05:12:19.807Z,3.07
2022-08-19T05:14:50.949Z,3.33
2022-08-19T05:17:33.531Z,3.73
2022-08-19T05:20:27.113Z,3.63
2022-08-19T05:22:56.129Z,3.27
2022-08-19T05:25:28.322Z,3.70
2022-08-19T05:27:57.129Z,3.90
2022-08-19T05:30:46.111Z,3.97
2022-08-19T05:33:18.087Z,5.70
2022-08-19T05:35:50.594Z,4.97
2022-08-19T05:38:20.623Z,6.30
2022-08-19T05:40:50.591Z,5.90
2022-08-19T05:43:19.607Z,5.37
2022-08-19T05:45:48.754Z,5.27
2022-08-19T05:48:18.774Z,5.47
2022-08-19T05:50:51.647Z,6.07
2022-08-19T05:53:21.001Z,6.40
2022-08-19T05:55:49.832Z,7.40
2022-08-19T05:58:20.038Z,6.40
2022-08-19T06:00:52.770Z,7.70
2022-08-19T06:03:32.673Z,7.37
2022-08-19T06:06:03.761Z,7.40
2022-08-19T06:08:33.587Z,8.53
2022-08-19T06:11:21.058Z,9.60
2022-08-19T06:13:52.068Z,8.90
2022-08-19T06:16:29.037Z,8.40
2022-08-19T06:18:59.471Z,8.13
2022-08-19T06:21:31.914Z,10.10
2022-08-19T06:24:01.888Z,10.33
2022-08-19T06:26:31.059Z,9.20
2022-08-19T06:29:00.463Z,8.27
2022-08-19T06:31:32.548Z,8.47
2022-08-19T06:34:01.663Z,8.03
2022-08-19T06:36:37.086Z,8.17
2022-08-19T06:39:07.759Z,7.23
2022-08-19T06:41:43.643Z,8.80
2022-08-19T06:44:16.405Z,8.80
2022-08-19T06:46:46.243Z,7.53
2022-08-19T06:49:26.300Z,8.17
2022-08-19T06:51:58.009Z,7.93
2022-08-19T06:54:30.882Z,7.80
2022-08-19T06:57:03.740Z,9.07
2022-08-19T06:59:34.979Z,7.10
2022-08-19T07:02:07.780Z,7.57
2022-08-19T07:04:39.419Z,7.07
2022-08-19T07:07:21.399Z,9.80
2022-08-19T07:09:58.383Z,7.30
2022-08-19T07:12:38.249Z,7.63
2022-08-19T07:15:10.038Z,8.47
2022-08-19T07:17:41.915Z,8.60
2022-08-19T07:20:12.464Z,8.50
2022-08-19T07:22:43.174Z,9.43
2022-08-19T07:25:14.481Z,9.07
2022-08-19T07:27:53.241Z,7.10
2022-08-19T07:30:26.199Z,6.93
2022-08-19T07:32:57.383Z,8.93
2022-08-19T07:35:26.904Z,7.80
2022-08-19T07:37:57.385Z,5.97
2022-08-19T07:40:26.426Z,7.10
2022-08-19T07:42:55.699Z,6.53
2022-08-19T07:45:24.877Z,6.10
2022-08-19T07:47:54.558Z,5.90
2022-08-19T07:50:24.359Z,6.17
2022-08-19T07:52:53.251Z,6.43
2022-08-19T07:55:42.055Z,6.07
2022-08-19T07:58:13.636Z,6.50
2022-08-19T08:00:42.949Z,7.40
2022-08-19T08:03:12.488Z,7.40
2022-08-19T08:05:58.917Z,7.60
2022-08-19T08:09:06.091Z,5.90
2022-08-19T08:11:37.944Z,7.87
2022-08-19T08:14:07.418Z,8.37
2022-08-19T08:22:46.528Z,6.27
2022-08-19T08:25:19.121Z,7.80
2022-08-19T08:27:53.728Z,6.93
2022-08-19T08:30:26.814Z,5.63
2022-08-19T08:33:02.694Z,3.90
2022-08-19T08:35:32.103Z,5.13
2022-08-19T08:38:00.995Z,4.20
2022-08-19T08:40:36.031Z,5.43
2022-08-19T08:43:11.606Z,4.50
2022-08-19T08:46:02.056Z,4.50
2022-08-19T08:48:41.302Z,4.57
2022-08-19T08:51:20.370Z,5.17
2022-08-19T08:53:50.938Z,3.40
2022-08-19T08:56:25.430Z,4.00
2022-08-19T08:59:08.193Z,3.93
2022-08-19T09:01:39.669Z,2.43
2022-08-19T09:04:10.255Z,2.00
2022-08-19T09:06:49.064Z,3.43
2022-08-19T09:09:25.404Z,3.23
2022-08-19T09:12:05.433Z,4.60
2022-08-19T09:14:52.178Z,3.90
2022-08-19T09:17:32.330Z,4.30
2022-08-19T09:20:09.149Z,3.93
2022-08-19T09:22:38.843Z,5.70
2022-08-19T09:25:09.861Z,4.40
2022-08-19T09:27:42.715Z,3.63
2022-08-19T09:30:28.595Z,4.40
2022-08-19T09:33:01.339Z,4.63
2022-08-19T09:35:32.100Z,4.50
2022-08-19T09:38:19.806Z,6.00
2022-08-19T09:40:48.866Z,4.67
2022-08-19T09:43:31.112Z,4.17
2022-08-19T09:46:05.232Z,6.40
2022-08-19T09:48:34.497Z,5.40
2022-08-19T09:51:11.782Z,5.93
2022-08-19T09:53:41.554Z,6.83
2022-08-19T09:56:10.417Z,6.90
2022-08-19T09:58:41.987Z,4.67
2022-08-19T10:01:18.483Z,5.40
2022-08-19T10:03:51.180Z,6.13
2022-08-19T10:06:20.939Z,5.80
2022-08-19T10:09:12.023Z,5.40
2022-08-19T10:11:52.220Z,7.40
2022-08-19T10:14:24.812Z,7.97
2022-08-19T10:16:55.560Z,5.93
2022-08-19T10:19:25.762Z,6.87
2022-08-19T10:22:00.068Z,8.30
2022-08-19T10:24:29.955Z,5.40
2022-08-19T10:27:00.057Z,6.23
2022-08-19T10:29:32.564Z,5.63
2022-08-19T10:32:04.784Z,5.10
2022-08-19T10:34:48.375Z,6.57
2022-08-19T10:37:28.805Z,5.00
2022-08-19T10:40:00.598Z,5.80
2022-08-19T10:42:32.451Z,5.40
2022-08-19T10:45:17.910Z,6.03
2022-08-19T10:47:49.131Z,5.63
2022-08-19T10:50:35.836Z,4.30
2022-08-19T10:53:09.933Z,4.70
2022-08-19T10:55:56.834Z,4.50
2022-08-19T10:58:26.269Z,4.00
2022-08-19T11:00:58.898Z,5.53
2022-08-19T11:03:33.743Z,3.33
2022-08-19T11:06:04.699Z,3.70
2022-08-19T11:08:34.723Z,4.73
2022-08-19T11:11:07.588Z,3.83
2022-08-19T11:13:42.100Z,5.23
2022-08-19T11:16:16.040Z,4.70
2022-08-19T11:18:49.818Z,4.67
2022-08-19T11:21:22.047Z,3.30
2022-08-19T11:23:53.777Z,3.23
2022-08-19T11:26:24.389Z,4.10
2022-08-19T11:28:58.062Z,3.80
2022-08-19T11:31:29.481Z,5.57
2022-08-19T11:34:08.768Z,3.93
2022-08-19T11:36:47.325Z,3.43
2022-08-19T11:39:19.312Z,3.67
2022-08-19T11:41:50.971Z,2.77
2022-08-19T11:44:20.111Z,2.77
2022-08-19T11:46:52.907Z,3.00
2022-08-19T11:49:28.575Z,3.10
2022-08-19T11:51:59.496Z,2.70
2022-08-19T11:54:34.674Z,2.17
2022-08-19T11:57:36.831Z,1.93
2022-08-19T11:59:57.533Z,2.53
2022-08-19T12:02:27.259Z,1.47
2022-08-19T12:05:09.001Z,3.83
2022-08-19T12:07:53.434Z,2.97
2022-08-19T12:10:27.944Z,3.17
2022-08-19T12:13:00.674Z,2.43
2022-08-19T12:15:37.132Z,2.70
2022-08-19T12:18:07.446Z,2.97
2022-08-19T12:20:41.964Z,2.37
2022-08-19T12:23:12.717Z,1.70
2022-08-19T12:25:53.026Z,2.70
2022-08-19T12:28:23.475Z,5.20
2022-08-19T12:30:53.585Z,2.80
2022-08-19T12:33:29.712Z,2.13
2022-08-19T12:36:05.756Z,2.00
2022-08-19T12:38:35.546Z,3.70
2022-08-19T12:41:06.706Z,3.40
2022-08-19T12:43:37.663Z,1.63
2022-08-19T12:46:07.969Z,2.77
2022-08-19T12:48:43.155Z,1.87
2022-08-19T12:51:16.129Z,1.20
2022-08-19T12:53:48.736Z,2.03
2022-08-19T12:56:22.856Z,2.07
2022-08-19T12:58:53.267Z,1.07
2022-08-19T13:01:23.971Z,2.23
2022-08-19T13:03:55.382Z,2.03
2022-08-19T13:06:26.214Z,1.37
2022-08-19T13:08:59.556Z,1.97
2022-08-19T13:11:33.811Z,2.50
2022-08-19T13:14:09.654Z,2.40
2022-08-19T13:16:41.465Z,2.77
2022-08-19T13:19:14.551Z,2.40
2022-08-19T13:22:15.028Z,1.90
2022-08-19T13:24:47.206Z,2.07
2022-08-19T13:27:17.282Z,2.13
2022-08-19T13:30:03.752Z,1.90
2022-08-19T13:32:50.766Z,2.57
2022-08-19T13:35:22.002Z,2.30
2022-08-19T13:37:53.635Z,2.33
2022-08-19T13:40:25.274Z,2.37
2022-08-19T13:42:57.288Z,1.50
2022-08-19T13:45:30.036Z,3.33
2022-08-19T13:48:01.442Z,2.30
2022-08-19T13:50:34.773Z,2.20
2022-08-19T13:53:06.552Z,2.27
2022-08-19T13:55:36.861Z,2.43
2022-08-19T13:58:06.404Z,2.97
2022-08-19T14:00:38.573Z,2.17
2022-08-19T14:03:10.385Z,2.93
2022-08-19T14:05:40.109Z,2.60
2022-08-19T14:08:11.909Z,2.77
2022-08-19T14:10:43.573Z,2.90
2022-08-19T14:13:13.502Z,2.63
2022-08-19T14:15:42.743Z,2.10
2022-08-19T14:18:12.310Z,4.03
2022-08-19T14:20:41.375Z,2.50
2022-08-19T14:23:13.602Z,3.00
2022-08-19T14:25:43.125Z,3.30
2022-08-19T14:28:12.988Z,2.43
2022-08-19T14:30:46.769Z,2.20
2022-08-19T14:33:18.723Z,3.13
2022-08-19T14:35:48.030Z,2.43
2022-08-19T14:38:31.405Z,2.37
2022-08-19T14:41:14.708Z,2.23
2022-08-19T14:43:47.487Z,1.10
2022-08-19T14:46:23.485Z,3.60
2022-08-19T14:49:09.618Z,2.40
2022-08-19T14:51:41.307Z,2.20
2022-08-19T14:54:13.281Z,3.43
2022-08-19T14:56:44.917Z,3.20
2022-08-19T14:59:14.891Z,3.10
2022-08-19T15:01:44.826Z,2.80
2022-08-19T15:04:14.320Z,4.13
2022-08-19T15:06:44.647Z,2.67
2022-08-19T15:09:17.055Z,2.80
2022-08-19T15:11:47.308Z,3.47
2022-08-19T15:14:16.920Z,2.87
2022-08-19T15:16:46.219Z,3.03
2022-08-19T15:19:15.923Z,2.93
2022-08-19T15:21:45.457Z,3.90
2022-08-19T15:24:17.042Z,3.43
2022-08-19T15:26:48.577Z,3.23
2022-08-19T15:29:19.334Z,3.40
2022-08-19T15:31:50.203Z,2.80
2022-08-19T15:34:20.533Z,3.00
2022-08-19T15:36:52.407Z,4.20
2022-08-19T15:39:30.050Z,2.63
2022-08-19T15:42:04.580Z,3.00
2022-08-19T15:47:35.848Z,3.17
2022-08-19T15:50:11.263Z,3.67
2022-08-19T15:52:49.455Z,3.83
2022-08-19T15:55:33.225Z,3.00
2022-08-19T15:58:28.307Z,2.30
2022-08-19T16:01:17.747Z,3.70
2022-08-19T16:04:14.097Z,3.73
2022-08-19T16:06:47.196Z,2.80
2022-08-19T16:09:17.912Z,2.83
2022-08-19T16:11:56.498Z,3.80
2022-08-19T16:14:27.204Z,3.23
2022-08-19T16:16:57.226Z,10.20
2022-08-19T16:19:28.045Z,3.77
2022-08-19T16:22:00.514Z,3.33
2022-08-19T16:24:30.664Z,2.77
2022-08-19T16:27:05.173Z,1.97
2022-08-19T16:29:39.511Z,3.80
2022-08-19T16:32:12.242Z,3.17
2022-08-19T16:34:42.939Z,2.77
2022-08-19T16:37:13.413Z,3.00
2022-08-19T16:39:43.731Z,3.20
2022-08-19T16:42:16.984Z,2.70
2022-08-19T16:44:48.554Z,4.17
2022-08-19T16:47:28.610Z,3.70
2022-08-19T16:50:13.388Z,3.90
2022-08-19T16:52:57.322Z,3.43
2022-08-19T16:55:28.984Z,3.40
2022-08-19T16:58:05.106Z,3.23
2022-08-19T17:00:38.470Z,2.50
2022-08-19T17:03:14.973Z,2.50
2022-08-19T17:05:46.007Z,1.77
2022-08-19T17:08:17.166Z,3.07
2022-08-19T17:11:02.119Z,2.60
2022-08-19T17:13:39.398Z,3.77
2022-08-19T17:16:09.451Z,4.07
2022-08-19T17:18:39.452Z,32.17
2022-08-19T17:21:08.623Z,24.10
2022-08-19T17:23:43.704Z,7.50
2022-08-19T17:26:18.165Z,13.80
2022-08-19T17:28:51.425Z,9.10
2022-08-19T17:31:23.572Z,4.93
2022-08-19T17:33:53.115Z,6.20
2022-08-19T17:36:26.257Z,5.87
2022-08-19T17:38:56.879Z,5.10
2022-08-19T17:41:28.714Z,4.13
2022-08-19T17:43:59.732Z,3.43
2022-08-19T17:46:30.813Z,4.00
2022-08-19T17:49:00.761Z,3.37
2022-08-19T17:51:44.365Z,3.67
2022-08-19T17:54:25.645Z,4.80
2022-08-19T17:57:05.810Z,2.83
2022-08-19T17:59:42.159Z,4.17
2022-08-19T18:02:12.945Z,4.07
2022-08-19T18:04:46.808Z,3.17
2022-08-19T18:07:51.667Z,3.47
2022-08-19T18:10:48.761Z,4.10
2022-08-19T18:17:45.544Z,3.20
2022-08-19T18:24:30.069Z,3.00
2022-08-19T18:27:26.813Z,4.27
2022-08-19T18:30:17.642Z,3.00
2022-08-19T18:33:17.288Z,2.80
2022-08-19T18:36:08.402Z,3.40
2022-08-19T18:39:07.823Z,2.97
2022-08-19T18:42:28.195Z,3.10
2022-08-19T18:45:16.820Z,2.63
2022-08-19T18:48:08.354Z,3.47
2022-08-19T18:54:03.729Z,1.63
2022-08-19T18:57:30.102Z,2.40
2022-08-19T19:00:07.581Z,2.00
2022-08-19T19:02:45.045Z,3.50
2022-08-19T19:05:17.357Z,2.40
2022-08-19T19:07:49.536Z,1.93
2022-08-19T19:10:18.827Z,1.93
2022-08-19T19:12:50.994Z,2.93
2022-08-19T19:15:21.959Z,1.77
2022-08-19T19:17:52.320Z,2.07
2022-08-19T19:20:36.178Z,2.03
2022-08-19T19:23:12.056Z,2.20
2022-08-19T19:25:50.423Z,2.00
2022-08-19T19:28:26.011Z,2.30
2022-08-19T19:30:57.880Z,1.87
2022-08-19T19:33:30.766Z,2.00
2022-08-19T19:36:02.318Z,1.80
2022-08-19T19:38:39.949Z,2.20
2022-08-19T19:41:11.540Z,2.67
2022-08-19T19:44:29.442Z,1.70
2022-08-19T19:47:04.301Z,3.03
2022-08-19T19:49:44.608Z,2.53
2022-08-19T19:52:29.367Z,3.23
2022-08-19T19:55:04.089Z,2.90
2022-08-19T19:57:35.330Z,2.80
2022-08-19T20:00:14.496Z,3.50
2022-08-19T20:02:57.962Z,4.90
2022-08-19T20:08:33.936Z,3.93
2022-08-19T20:11:42.827Z,4.30
2022-08-19T20:14:20.356Z,2.67
2022-08-19T20:16:51.556Z,2.70
2022-08-19T20:19:35.427Z,4.07
2022-08-19T20:22:13.952Z,5.07
2022-08-19T20:24:49.343Z,3.30
2022-08-19T20:27:26.999Z,4.70
2022-08-19T20:30:13.879Z,3.33
2022-08-19T20:33:05.296Z,4.00
2022-08-19T20:35:45.207Z,3.50
2022-08-19T20:38:22.619Z,3.00
2022-08-19T20:41:18.592Z,3.43
2022-08-19T20:44:15.788Z,2.57
2022-08-19T20:47:04.436Z,2.93
2022-08-19T20:49:51.294Z,3.30
2022-08-19T20:55:45.671Z,2.40
2022-08-19T20:58:29.385Z,4.00
2022-08-19T21:01:05.742Z,4.40
2022-08-19T21:03:44.482Z,4.00
2022-08-19T21:06:23.105Z,2.20
2022-08-19T21:09:08.044Z,3.60
2022-08-19T21:11:40.353Z,3.80
2022-08-19T21:14:22.544Z,3.30
2022-08-19T21:16:55.302Z,2.70
2022-08-19T21:19:40.167Z,3.27
2022-08-19T21:22:23.267Z,3.40
2022-08-19T21:25:11.616Z,3.50
2022-08-19T21:27:43.723Z,2.60
2022-08-19T21:30:30.490Z,3.60
2022-08-19T21:33:04.744Z,2.73
2022-08-19T21:35:41.549Z,3.23
2022-08-19T21:44:11.946Z,4.93
2022-08-19T21:46:42.868Z,4.03
2022-08-19T21:49:23.137Z,4.33
2022-08-19T21:52:20.750Z,3.57
2022-08-19T21:54:52.449Z,4.57
2022-08-19T21:57:25.070Z,3.70
2022-08-19T21:59:55.410Z,3.23
2022-08-19T22:02:24.602Z,4.03
2022-08-19T22:04:58.611Z,3.90
2022-08-19T22:07:40.877Z,3.90
2022-08-19T22:10:12.057Z,3.10
2022-08-19T22:12:51.382Z,3.40
2022-08-19T22:15:22.188Z,4.33
2022-08-19T22:17:51.639Z,3.93
2022-08-19T22:20:23.924Z,3.60
2022-08-19T22:22:57.434Z,3.40
2022-08-19T22:25:31.918Z,3.40
2022-08-19T22:28:06.132Z,3.10
2022-08-19T22:30:44.067Z,2.83
2022-08-19T22:33:17.129Z,2.60
2022-08-19T22:35:49.092Z,2.60
2022-08-19T22:38:20.670Z,2.07
2022-08-19T22:40:51.602Z,2.20
2022-08-19T22:43:23.282Z,2.67
2022-08-19T22:46:16.949Z,2.77
2022-08-19T22:48:49.481Z,3.73
2022-08-19T22:51:49.262Z,2.87
2022-08-19T22:54:30.617Z,4.00
2022-08-19T22:57:01.838Z,3.13
2022-08-19T22:59:34.997Z,4.13
2022-08-19T23:02:04.718Z,4.47
2022-08-19T23:04:34.190Z,4.50
2022-08-19T23:07:04.071Z,5.50
2022-08-19T23:09:35.447Z,4.10
2022-08-19T23:12:09.387Z,3.70
2022-08-19T23:14:43.576Z,4.10
2022-08-19T23:17:28.101Z,5.43
2022-08-19T23:23:46.085Z,4.77
2022-08-19T23:26:35.593Z,4.43
2022-08-19T23:32:20.172Z,3.87
2022-08-19T23:34:51.085Z,3.93
2022-08-19T23:37:20.678Z,2.93
2022-08-19T23:40:13.537Z,3.43
2022-08-19T23:42:46.945Z,3.90
2022-08-19T23:45:23.650Z,3.43
2022-08-19T23:48:10.740Z,3.80
2022-08-19T23:50:43.851Z,5.17
2022-08-19T23:53:15.594Z,4.20
2022-08-19T23:55:51.394Z,5.30
2022-08-19T23:58:27.762Z,4.80
